Time;durP1;ratioP1;P1;durP2;ratioP2;P2;SDS_P1;SDS_P2;PMS_P1;PMS_P2;Temp;Humidity;BMP_temperature;BMP_pressure;BME280_temperature;BME280_humidity;BME280_pressure;Samples;Min_cycle;Max_cycle;Signal;HPM_P1;HPM_P2
2022/04/18 00:00:27;;;;;;;;;1.33;1.33;;;;;17.38;28.29;100991.72;4856726;29;44923;-84
2022/04/18 00:06:15;;;;;;;;;2.00;2.00;;;;;17.22;28.10;100977.53;4872813;29;44762;-85
2022/04/18 00:08:40;;;;;;;;;0.67;0.67;;;;;17.35;28.38;100999.81;4855242;29;45403;-84
2022/04/18 00:11:06;;;;;;;;;2.00;2.00;;;;;17.36;28.35;101007.00;4885845;29;45469;-84
2022/04/18 00:13:38;;;;;;;;;1.00;1.00;;;;;17.30;28.60;100991.81;4878235;29;45371;-84
2022/04/18 00:16:03;;;;;;;;;1.00;1.00;;;;;17.10;28.52;100958.84;4873691;29;45792;-84
2022/04/18 00:18:29;;;;;;;;;2.00;1.00;;;;;17.08;28.53;100960.66;4873768;29;45528;-84
2022/04/18 00:20:55;;;;;;;;;2.00;2.00;;;;;17.23;28.67;100973.97;4890353;29;45391;-84
2022/04/18 00:23:21;;;;;;;;;2.00;2.00;;;;;17.22;28.71;100995.47;4891114;29;45533;-84
2022/04/18 00:25:46;;;;;;;;;2.33;1.33;;;;;17.13;28.98;100975.84;4873869;29;45719;-85
2022/04/18 00:28:12;;;;;;;;;2.00;2.00;;;;;16.93;29.02;100943.78;4872930;29;45493;-84
2022/04/18 00:30:38;;;;;;;;;1.00;1.00;;;;;16.92;29.30;100958.09;4874544;29;45440;-84
2022/04/18 00:33:04;;;;;;;;;1.00;1.00;;;;;17.12;29.23;100998.22;4875215;29;47349;-84
2022/04/18 00:35:29;;;;;;;;;1.00;1.00;;;;;17.11;29.30;100987.53;4874518;29;45482;-84
2022/04/18 00:37:55;;;;;;;;;1.00;1.00;;;;;16.77;29.26;100932.25;4884822;29;45440;-85
2022/04/18 00:40:20;;;;;;;;;3.67;2.67;;;;;17.03;29.60;100974.16;4870154;29;45370;-84
2022/04/18 00:42:46;;;;;;;;;3.67;2.00;;;;;16.89;29.66;100963.50;4853781;29;47036;-84
2022/04/18 00:45:12;;;;;;;;;2.00;2.00;;;;;16.79;29.77;100948.34;4854070;29;45813;-84
2022/04/18 00:47:37;;;;;;;;;2.00;2.00;;;;;16.80;29.77;100955.47;4860740;29;45445;-84
2022/04/18 00:50:03;;;;;;;;;2.00;2.00;;;;;16.91;29.80;100972.44;4870132;29;44860;-84
2022/04/18 00:52:31;;;;;;;;;1.00;1.00;;;;;16.65;29.51;100920.72;4879085;29;45201;-84
2022/04/18 00:55:00;;;;;;;;;2.00;2.00;;;;;16.76;29.64;100951.03;4862054;29;45484;-83
2022/04/18 00:57:28;;;;;;;;;2.00;2.00;;;;;16.51;30.12;100919.03;4861528;29;45430;-83
2022/04/18 00:59:53;;;;;;;;;2.33;2.33;;;;;16.79;29.93;100978.78;4860179;29;45935;-83
2022/04/18 01:02:20;;;;;;;;;3.67;2.00;;;;;16.84;30.39;100976.09;4875773;29;46836;-84
2022/04/18 01:04:46;;;;;;;;;2.33;2.33;;;;;16.66;30.22;100960.06;4857538;29;45410;-83
2022/04/18 01:07:12;;;;;;;;;2.00;2.00;;;;;16.66;30.21;100960.06;4875530;29;45392;-85
2022/04/18 01:09:38;;;;;;;;;2.67;1.33;;;;;16.57;30.23;100961.06;4857881;29;45563;-84
2022/04/18 01:12:04;;;;;;;;;2.67;1.67;;;;;16.56;30.34;100964.63;4858272;29;47239;-84
2022/04/18 01:14:29;;;;;;;;;3.00;3.00;;;;;16.54;30.30;100970.03;4876072;29;46288;-84
2022/04/18 01:16:55;;;;;;;;;2.00;2.00;;;;;16.51;30.33;100958.41;4875887;29;44948;-84
2022/04/18 01:19:21;;;;;;;;;4.00;2.00;;;;;16.47;30.48;100967.38;4860890;29;45794;-85
2022/04/18 01:21:46;;;;;;;;;2.00;1.00;;;;;16.44;30.44;100960.25;4892801;29;46753;-84
2022/04/18 01:29:39;;;;;;;;;2.00;2.00;;;;;16.34;30.42;100950.44;4878629;29;44806;-84
2022/04/18 01:32:06;;;;;;;;;2.00;2.00;;;;;16.37;30.71;100950.44;4878960;28;45422;-85
2022/04/18 01:34:31;;;;;;;;;2.00;2.00;;;;;16.32;30.32;100954.94;4879121;28;45748;-85
2022/04/18 01:36:57;;;;;;;;;2.00;2.00;;;;;16.26;30.61;100944.22;4861926;29;45396;-84
2022/04/18 01:39:22;;;;;;;;;2.00;2.00;;;;;16.25;30.69;100939.78;4862235;29;44938;-84
2022/04/18 01:41:49;;;;;;;;;2.00;2.00;;;;;16.30;30.59;100941.53;4878504;29;48213;-84
2022/04/18 01:44:17;;;;;;;;;2.67;2.67;;;;;16.25;30.69;100950.53;4876480;29;45655;-84
2022/04/18 01:46:42;;;;;;;;;2.00;2.00;;;;;16.18;30.67;100939.81;4876890;29;45504;-84
2022/04/18 01:49:08;;;;;;;;;2.00;2.00;;;;;16.23;30.82;100945.16;4876959;29;45835;-83
2022/04/18 01:51:33;;;;;;;;;2.00;2.00;;;;;16.18;30.76;100936.25;4890352;29;47827;-84
2022/04/18 01:55:04;;;;;;;;;1.00;1.00;;;;;16.35;30.69;100937.03;4873890;29;44981;-84
2022/04/18 01:57:36;;;;;;;;;3.00;1.00;;;;;16.29;30.75;100934.38;4888476;29;45483;-83
2022/04/18 02:00:03;;;;;;;;;2.33;2.00;;;;;16.16;30.74;100933.56;4875871;29;45535;-85
2022/04/18 02:02:29;;;;;;;;;2.00;2.00;;;;;16.12;31.28;100936.28;4874738;29;46633;-84
2022/04/18 02:04:54;;;;;;;;;2.33;2.33;;;;;16.07;30.76;100933.63;4859368;29;44743;-85
2022/04/18 02:07:20;;;;;;;;;2.00;2.00;;;;;16.05;30.78;100922.00;4876126;29;45456;-83
2022/04/18 02:09:46;;;;;;;;;3.00;3.00;;;;;16.06;31.19;100926.47;4875256;29;45408;-83
2022/04/18 02:12:12;;;;;;;;;3.00;3.00;;;;;16.06;31.41;100925.56;4875157;29;45407;-83
2022/04/18 02:14:37;;;;;;;;;0.00;0.00;;;;;16.03;31.67;100929.16;4874892;29;45506;-83
2022/04/18 02:17:03;;;;;;;;;2.33;2.33;;;;;15.98;31.85;100917.59;4840481;29;45548;-84
2022/04/18 02:19:28;;;;;;;;;2.00;2.00;;;;;15.93;31.89;100914.03;4849052;29;45447;-85
2022/04/18 02:21:53;;;;;;;;;2.67;2.67;;;;;15.92;32.08;100923.88;4857394;29;47022;-84
2022/04/18 02:24:57;;;;;;;;;4.00;2.00;;;;;16.09;31.76;100926.44;4860892;29;45548;-84
2022/04/18 02:27:23;;;;;;;;;2.00;2.00;;;;;15.90;32.31;100931.03;4861806;29;44911;-85
2022/04/18 02:29:49;;;;;;;;;2.00;2.00;;;;;15.87;32.46;100916.72;4861193;29;45484;-84
2022/04/18 02:34:59;;;;;;;;;3.00;3.00;;;;;15.77;32.27;100906.06;4878408;28;45561;-83
2022/04/18 02:37:24;;;;;;;;;3.00;3.00;;;;;15.72;32.26;100915.91;4879007;28;45851;-83
2022/04/18 02:39:50;;;;;;;;;3.00;2.00;;;;;15.65;32.36;100915.91;4872735;29;45532;-84
2022/04/18 02:42:18;;;;;;;;;2.00;2.00;;;;;15.75;32.18;100920.34;4873697;29;47700;-85
2022/04/18 02:44:46;;;;;;;;;2.00;2.00;;;;;15.60;32.34;100911.44;4856072;29;45536;-84
2022/04/18 02:47:12;;;;;;;;;2.67;2.67;;;;;15.61;32.65;100912.34;4870765;29;45476;-83
2022/04/18 02:49:38;;;;;;;;;2.67;2.67;;;;;15.64;32.60;100919.50;4872994;29;45554;-84
2022/04/18 02:52:07;;;;;;;;;3.00;3.00;;;;;15.74;32.59;100923.97;4870463;29;46841;-84
2022/04/18 02:54:32;;;;;;;;;2.33;2.33;;;;;15.65;32.73;100918.59;4869553;29;44926;-84
2022/04/18 02:56:59;;;;;;;;;3.00;3.00;;;;;15.71;32.96;100923.91;4873344;29;45401;-84
2022/04/18 02:59:24;;;;;;;;;3.00;3.00;;;;;15.59;32.83;100908.78;4872378;29;45460;-83
2022/04/18 03:01:50;;;;;;;;;2.67;2.33;;;;;15.64;32.92;100922.19;4875455;29;45616;-83
2022/04/18 03:04:15;;;;;;;;;3.00;2.00;;;;;15.62;32.96;100919.50;4874541;29;45363;-84
2022/04/18 03:06:41;;;;;;;;;4.00;4.00;;;;;15.59;32.82;100914.13;4860862;29;44782;-83
2022/04/18 03:09:06;;;;;;;;;4.33;3.00;;;;;15.60;32.86;100915.94;4875893;28;44945;-84
2022/04/18 03:11:34;;;;;;;;;2.67;2.67;;;;;15.65;32.99;100908.75;4875802;28;45769;-84
2022/04/18 03:14:00;;;;;;;;;1.33;1.33;;;;;15.56;33.19;100919.53;4884895;29;45476;-84
2022/04/18 03:16:25;;;;;;;;;3.00;3.00;;;;;15.56;32.95;100916.84;4893921;29;45454;-84
2022/04/18 03:18:50;;;;;;;;;5.00;4.00;;;;;15.52;33.26;100912.38;4875012;29;45455;-83
2022/04/18 03:21:19;;;;;;;;;4.67;3.33;;;;;15.48;33.56;100906.13;4890652;28;45933;-83
2022/04/18 03:23:46;;;;;;;;;4.00;4.00;;;;;15.47;33.51;100907.06;4892222;29;45433;-84
2022/04/18 03:26:11;;;;;;;;;0.00;0.00;;;;;15.38;33.96;100907.94;4894264;28;45776;-84
2022/04/18 03:28:36;;;;;;;;;4.67;3.67;;;;;15.37;33.97;100919.59;4891610;28;45456;-85
2022/04/18 03:31:02;;;;;;;;;3.00;3.00;;;;;15.28;33.85;100903.50;4893591;28;45557;-84
2022/04/18 03:33:28;;;;;;;;;3.00;2.00;;;;;15.24;34.04;100903.53;4894565;28;45533;-82
2022/04/18 03:41:23;;;;;;;;;3.33;3.33;;;;;15.13;34.40;100908.94;4892542;29;45546;-84
2022/04/18 03:43:50;;;;;;;;;3.00;3.00;;;;;15.07;34.62;100896.44;4907686;29;44860;-84
2022/04/18 03:46:58;;;;;;;;;3.00;3.00;;;;;15.17;34.82;100900.00;4891626;29;45397;-84
2022/04/18 03:49:24;;;;;;;;;2.33;2.33;;;;;14.91;35.07;100903.59;4893259;29;45431;-84
2022/04/18 03:51:49;;;;;;;;;3.67;3.67;;;;;14.89;35.34;100900.03;4891583;29;45330;-84
2022/04/18 03:54:15;;;;;;;;;3.33;3.00;;;;;14.79;35.51;100892.91;4907100;29;45667;-84
2022/04/18 03:56:40;;;;;;;;;3.00;3.00;;;;;14.73;36.01;100888.44;4892472;29;45443;-85
2022/04/18 03:59:07;;;;;;;;;2.33;2.33;;;;;14.80;36.07;100900.03;4891983;29;45315;-85
2022/04/18 04:01:32;;;;;;;;;2.33;2.33;;;;;14.67;36.22;100899.16;4872640;29;46770;-84
2022/04/18 04:03:58;;;;;;;;;3.00;3.00;;;;;14.55;36.67;100877.72;4890787;29;45581;-83
2022/04/18 04:06:23;;;;;;;;;3.67;3.67;;;;;14.57;36.86;100886.66;4890710;29;45613;-84
2022/04/18 04:08:48;;;;;;;;;2.67;2.67;;;;;14.56;36.69;100891.13;4891638;29;45445;-83
2022/04/18 04:11:58;;;;;;;;;3.00;3.00;;;;;14.71;36.86;100900.03;4908431;28;46512;-84
2022/04/18 04:14:23;;;;;;;;;3.00;3.00;;;;;14.51;37.09;100886.63;4894566;28;44774;-84
2022/04/18 04:16:49;;;;;;;;;3.00;3.00;;;;;14.50;37.24;100891.09;4879163;29;45597;-83
2022/04/18 04:19:14;;;;;;;;;3.00;3.00;;;;;14.46;37.36;100888.41;4896148;29;44851;-85
2022/04/18 04:21:40;;;;;;;;;3.00;3.00;;;;;14.39;37.57;100877.69;4897959;28;44999;-84
2022/04/18 04:24:05;;;;;;;;;3.00;3.00;;;;;14.44;37.79;100893.78;4884345;29;45417;-82
2022/04/18 04:26:31;;;;;;;;;4.00;4.00;;;;;14.38;37.81;100897.31;4902128;28;45463;-85
2022/04/18 04:28:57;;;;;;;;;4.33;2.00;;;;;14.33;38.12;100893.75;4884956;29;45530;-83
2022/04/18 04:31:22;;;;;;;;;2.67;2.67;;;;;14.30;38.20;100890.16;4902074;28;45606;-83
2022/04/18 04:33:47;;;;;;;;;2.33;2.33;;;;;14.31;38.21;100897.31;4883814;29;45579;-84
2022/04/18 04:36:15;;;;;;;;;3.67;3.00;;;;;14.25;38.23;100890.16;4894869;28;45500;-84
2022/04/18 04:38:40;;;;;;;;;3.33;3.00;;;;;14.25;38.41;100902.66;4901736;28;45466;-83
2022/04/18 04:41:06;;;;;;;;;3.00;3.00;;;;;14.12;38.68;100878.56;4885847;29;47192;-84
2022/04/18 04:43:31;;;;;;;;;4.00;3.00;;;;;14.16;38.55;100901.75;4901766;28;44869;-85
2022/04/18 04:46:00;;;;;;;;;2.33;2.33;;;;;14.23;39.09;100909.78;4900589;28;45388;-84
2022/04/18 04:48:26;;;;;;;;;4.33;4.00;;;;;14.17;39.10;100908.00;4885537;29;45677;-84
2022/04/18 04:50:52;;;;;;;;;4.67;3.00;;;;;14.10;39.27;100900.81;4901769;28;45043;-84
2022/04/18 04:53:18;;;;;;;;;4.00;4.00;;;;;14.00;39.42;100895.47;4884011;29;45899;-84
2022/04/18 04:55:44;;;;;;;;;3.67;3.67;;;;;14.06;39.56;100901.72;4899884;28;45861;-83
2022/04/18 04:58:10;;;;;;;;;3.00;3.00;;;;;13.99;39.75;100898.13;4885170;28;45471;-84
2022/04/18 05:00:36;;;;;;;;;4.00;2.33;;;;;13.94;39.71;100892.78;4900969;29;45551;-83
2022/04/18 05:03:02;;;;;;;;;3.67;3.67;;;;;13.94;39.43;100891.91;4883005;29;45806;-85
2022/04/18 05:05:28;;;;;;;;;4.33;4.33;;;;;13.96;39.55;100900.81;4898616;28;44972;-84
2022/04/18 05:07:55;;;;;;;;;5.00;5.00;;;;;13.90;39.83;100899.00;4900531;28;45404;-84
2022/04/18 05:10:21;;;;;;;;;4.00;3.00;;;;;13.94;39.59;100910.63;4883421;29;46844;-84
2022/04/18 05:12:47;;;;;;;;;4.00;4.00;;;;;13.93;39.79;100916.84;4884679;29;44837;-85
2022/04/18 05:15:12;;;;;;;;;3.00;2.67;;;;;13.93;39.63;100904.34;4883175;29;45557;-84
2022/04/18 05:17:38;;;;;;;;;6.00;5.00;;;;;13.88;39.56;100905.25;4880659;28;45458;-83
2022/04/18 05:20:10;;;;;;;;;5.00;5.00;;;;;13.94;39.59;100913.28;4881064;28;45439;-84
2022/04/18 05:22:35;;;;;;;;;5.00;3.33;;;;;13.87;39.55;100903.44;4880737;28;45397;-84
2022/04/18 05:25:01;;;;;;;;;4.00;4.00;;;;;13.93;39.48;100907.03;4879694;28;45406;-84
2022/04/18 05:27:26;;;;;;;;;5.33;5.00;;;;;13.91;39.78;100910.59;4881800;28;44789;-84
2022/04/18 05:29:52;;;;;;;;;4.67;4.00;;;;;13.94;39.96;100918.63;4880480;28;45448;-84
2022/04/18 05:32:17;;;;;;;;;6.00;6.00;;;;;13.92;40.32;100923.09;4878200;28;45435;-83
2022/04/18 05:34:43;;;;;;;;;4.00;4.00;;;;;13.91;40.33;100943.56;4876447;29;45482;-84
2022/04/18 05:37:09;;;;;;;;;5.00;5.00;;;;;13.85;40.75;100932.84;4877507;28;45404;-85
2022/04/18 05:39:34;;;;;;;;;6.00;4.33;;;;;13.87;40.75;100940.88;4877016;28;45327;-83
2022/04/18 05:42:00;;;;;;;;;5.00;5.00;;;;;13.83;40.99;100945.31;4877780;28;45511;-84
2022/04/18 05:44:26;;;;;;;;;5.33;5.33;;;;;13.90;41.07;100941.78;4876763;28;45256;-83
2022/04/18 05:46:58;;;;;;;;;5.00;4.00;;;;;14.12;41.21;100948.09;4877000;28;45398;-84
2022/04/18 05:49:23;;;;;;;;;6.00;6.00;;;;;14.10;41.35;100944.53;4877469;29;45390;-84
2022/04/18 05:51:50;;;;;;;;;7.33;5.33;;;;;14.11;41.43;100930.25;4875603;28;44827;-85
2022/04/18 05:54:16;;;;;;;;;8.00;4.67;;;;;14.19;41.61;100931.16;4892243;28;45994;-84
2022/04/18 05:56:43;;;;;;;;;5.00;5.00;;;;;14.37;41.53;100948.16;4877950;28;44756;-84
2022/04/18 05:59:08;;;;;;;;;4.33;4.33;;;;;14.31;41.58;100934.78;4878523;28;46289;-84
2022/04/18 06:01:35;;;;;;;;;5.00;5.00;;;;;14.49;41.52;100953.53;4875872;28;45618;-84
2022/04/18 06:04:01;;;;;;;;;6.00;6.00;;;;;14.55;41.28;100937.47;4858906;29;45425;-83
2022/04/18 06:06:26;;;;;;;;;7.00;7.00;;;;;14.65;41.06;100932.16;4876830;29;45431;-83
2022/04/18 06:08:51;;;;;;;;;6.00;5.33;;;;;14.83;41.05;100948.22;4876438;28;45324;-83
2022/04/18 06:11:17;;;;;;;;;4.67;4.67;;;;;14.87;40.96;100947.34;4875721;28;45479;-84
2022/04/18 06:13:42;;;;;;;;;6.00;6.00;;;;;14.91;40.89;100938.41;4881002;29;45444;-84
2022/04/18 06:16:08;;;;;;;;;9.33;6.67;;;;;15.11;40.88;100949.09;4878213;29;44880;-84
2022/04/18 06:18:34;;;;;;;;;12.33;10.33;;;;;15.22;40.51;100961.59;4898158;28;46860;-85
2022/04/18 06:20:59;;;;;;;;;7.67;7.67;;;;;15.34;40.49;100956.22;4897442;28;45807;-83
2022/04/18 06:23:25;;;;;;;;;10.00;9.00;;;;;15.33;40.47;100936.56;4899238;28;45260;-84
2022/04/18 06:25:54;;;;;;;;;11.67;9.33;;;;;15.54;40.21;100958.84;4878725;28;45228;-84
2022/04/18 06:28:19;;;;;;;;;11.00;10.00;;;;;15.42;40.33;100921.34;4901342;28;46872;-85
2022/04/18 06:30:45;;;;;;;;;14.33;11.33;;;;;15.44;39.52;100916.88;4896662;29;45413;-85
2022/04/18 06:33:12;;;;;;;;;11.00;9.00;;;;;15.78;39.61;100958.78;4893663;29;45419;-84
2022/04/18 06:35:38;;;;;;;;;12.00;11.00;;;;;15.57;39.46;100915.94;4876647;29;45670;-86
2022/04/18 06:38:05;;;;;;;;;11.33;11.33;;;;;15.78;39.31;100958.78;4876885;29;46864;-83
2022/04/18 06:40:31;;;;;;;;;16.00;12.67;;;;;15.59;39.18;100931.13;4894905;28;44929;-84
2022/04/18 06:42:57;;;;;;;;;10.00;10.00;;;;;15.50;39.12;100914.19;4879032;29;45469;-85
2022/04/18 06:45:24;;;;;;;;;12.00;10.67;;;;;15.79;39.13;100949.88;4877216;29;45651;-84
2022/04/18 06:47:49;;;;;;;;;12.00;12.00;;;;;15.70;38.78;100927.50;4879677;29;45325;-83
2022/04/18 06:50:17;;;;;;;;;13.33;13.33;;;;;15.62;39.01;100910.56;4880087;29;45460;-85
2022/04/18 06:52:47;;;;;;;;;14.00;13.00;;;;;15.73;38.86;100941.81;4897378;28;45459;-84
2022/04/18 06:55:12;;;;;;;;;14.00;12.67;;;;;15.45;39.07;100906.16;4894796;28;45661;-85
2022/04/18 06:57:38;;;;;;;;;11.67;11.67;;;;;15.48;38.86;100910.63;4876781;29;48432;-83
2022/04/18 07:00:05;;;;;;;;;13.33;13.33;;;;;15.79;38.89;100931.09;4879739;29;45879;-84
2022/04/18 07:02:31;;;;;;;;;13.33;13.33;;;;;15.95;38.74;100945.28;4879231;29;45742;-84
2022/04/18 07:04:56;;;;;;;;;17.67;14.33;;;;;15.87;38.66;100912.25;4896341;28;45390;-84
2022/04/18 07:07:25;;;;;;;;;16.33;14.00;;;;;16.14;38.66;100943.44;4894519;28;45413;-84
2022/04/18 07:13:13;;;;;;;;;14.00;14.00;;;;;16.11;38.43;100939.84;4893286;29;44944;-85
2022/04/18 07:15:39;;;;;;;;;13.33;12.00;;;;;16.28;38.21;100945.13;4895041;28;45534;-85
2022/04/18 07:18:05;;;;;;;;;15.00;15.00;;;;;16.42;38.22;100945.03;4876633;29;48304;-84
2022/04/18 07:20:31;;;;;;;;;12.67;12.67;;;;;16.51;38.12;100935.13;4893207;28;45693;-84
2022/04/18 07:22:57;;;;;;;;;17.00;13.67;;;;;16.77;37.83;100945.66;4878656;29;44828;-85
2022/04/18 07:25:23;;;;;;;;;13.67;13.67;;;;;16.85;37.61;100942.97;4894129;28;45767;-85
2022/04/18 07:27:48;;;;;;;;;16.67;16.67;;;;;16.96;37.46;100940.16;4878163;29;46894;-83
2022/04/18 07:30:14;;;;;;;;;14.33;13.00;;;;;17.08;37.25;100945.41;4894262;29;45154;-84
2022/04/18 07:32:40;;;;;;;;;15.00;13.33;;;;;17.10;36.96;100919.44;4892119;28;45422;-85
2022/04/18 07:35:07;;;;;;;;;18.00;17.33;;;;;17.24;36.36;100924.66;4892282;29;45839;-85
2022/04/18 07:37:33;;;;;;;;;11.33;11.33;;;;;17.42;36.32;100946.91;4894989;28;45083;-84
2022/04/18 07:39:58;;;;;;;;;15.67;14.33;;;;;17.53;36.70;100950.34;4886283;29;45463;-84
2022/04/18 07:42:24;;;;;;;;;12.67;12.33;;;;;17.59;35.84;100929.66;4892853;28;45457;-84
2022/04/18 07:44:49;;;;;;;;;13.33;12.67;;;;;17.79;35.61;100947.34;4876335;29;45430;-84
2022/04/18 07:47:15;;;;;;;;;16.00;16.00;;;;;17.91;35.66;100946.34;4895120;28;45422;-84
2022/04/18 07:49:40;;;;;;;;;12.00;12.00;;;;;17.97;35.56;100940.88;4862800;29;44829;-86
2022/04/18 07:52:08;;;;;;;;;15.67;14.33;;;;;18.06;35.24;100947.97;4891505;28;45342;-84
2022/04/18 07:54:35;;;;;;;;;15.33;15.33;;;;;18.05;34.94;100949.72;4897478;28;45411;-86
2022/04/18 07:57:01;;;;;;;;;11.67;11.67;;;;;18.04;34.75;100952.44;4884004;29;46778;-84
2022/04/18 07:59:26;;;;;;;;;15.00;14.33;;;;;18.02;34.55;100947.09;4877990;28;45551;-85
2022/04/18 08:01:52;;;;;;;;;14.67;13.00;;;;;17.84;34.54;100942.84;4876172;29;45454;-84
2022/04/18 08:04:17;;;;;;;;;13.67;13.00;;;;;17.67;34.65;100956.44;4875393;28;45385;-85
2022/04/18 08:06:44;;;;;;;;;13.33;11.33;;;;;17.50;35.00;100945.00;4859258;29;46818;-85
2022/04/18 08:09:09;;;;;;;;;15.00;12.00;;;;;17.44;34.86;100950.47;4874791;29;45539;-85
2022/04/18 08:11:35;;;;;;;;;11.33;11.33;;;;;17.57;35.04;100949.38;4875712;28;45326;-85
2022/04/18 08:14:01;;;;;;;;;12.67;12.67;;;;;17.76;34.70;100953.66;4875553;29;45579;-84
2022/04/18 08:16:26;;;;;;;;;11.67;8.00;;;;;17.95;34.12;100956.16;4880385;29;45469;-84
2022/04/18 08:18:51;;;;;;;;;17.67;13.33;;;;;18.11;34.23;100955.03;4878222;29;45610;-84
2022/04/18 08:21:19;;;;;;;;;11.00;11.00;;;;;18.36;32.90;100946.59;4893999;28;45806;-84
2022/04/18 08:23:50;;;;;;;;;14.33;13.33;;;;;18.33;33.62;100947.53;4910737;28;44851;-84
2022/04/18 08:26:17;;;;;;;;;12.67;12.67;;;;;18.29;33.71;100936.84;4863571;29;47167;-85
2022/04/18 08:28:43;;;;;;;;;14.00;13.00;;;;;18.55;33.32;100937.34;4911850;28;45740;-84
2022/04/18 08:31:08;;;;;;;;;10.67;10.67;;;;;18.57;32.97;100932.81;4895971;28;44836;-84
2022/04/18 08:33:34;;;;;;;;;13.33;12.67;;;;;18.62;32.87;100939.94;4897004;28;45491;-83
2022/04/18 08:36:00;;;;;;;;;12.67;12.67;;;;;18.70;33.00;100948.78;4896184;28;45229;-84
2022/04/18 08:38:26;;;;;;;;;13.00;12.00;;;;;18.67;32.87;100943.47;4898978;28;45395;-84
2022/04/18 08:40:57;;;;;;;;;12.33;10.67;;;;;18.82;32.68;100947.72;4881260;29;44850;-84
2022/04/18 08:43:25;;;;;;;;;12.33;12.33;;;;;18.84;32.54;100941.38;4880219;29;45582;-84
2022/04/18 08:45:50;;;;;;;;;10.33;8.33;;;;;18.99;32.76;100945.66;4881006;29;47057;-85
2022/04/18 08:54:07;;;;;;;;;10.33;10.33;;;;;19.25;31.57;100917.31;4898369;28;44779;-84
2022/04/18 08:56:34;;;;;;;;;15.67;14.33;;;;;19.25;31.80;100934.38;4865162;29;45375;-85
2022/04/18 08:58:59;;;;;;;;;11.33;10.33;;;;;19.03;31.55;100931.19;4863961;29;45394;-85
2022/04/18 09:01:25;;;;;;;;;15.00;12.67;;;;;19.03;31.42;100935.66;4877580;29;45447;-83
2022/04/18 09:03:50;;;;;;;;;13.33;12.67;;;;;19.07;31.22;100943.69;4882556;29;45472;-85
2022/04/18 09:06:16;;;;;;;;;13.67;13.67;;;;;18.98;30.65;100947.41;4913305;28;45461;-84
2022/04/18 09:08:46;;;;;;;;;11.00;11.00;;;;;19.16;31.31;100938.13;4880849;29;45456;-85
2022/04/18 09:11:26;;;;;;;;;12.33;10.00;;;;;19.38;31.25;100944.00;4879077;29;45495;-85
2022/04/18 09:13:57;;;;;;;;;9.33;9.33;;;;;19.50;31.42;100939.31;4878973;29;45422;-83
2022/04/18 09:16:28;;;;;;;;;5.33;5.00;;;;;19.59;30.37;100920.22;4884672;28;47643;-83
2022/04/18 09:19:09;;;;;;;;;9.33;9.33;;;;;19.50;30.54;100899.72;4896611;28;45794;-84
2022/04/18 09:21:54;;;;;;;;;13.00;9.00;;;;;19.49;30.15;100924.03;4912736;28;44767;-85
2022/04/18 09:24:34;;;;;;;;;9.00;6.67;;;;;19.41;30.30;100920.59;4867261;29;45443;-85
2022/04/18 09:27:09;;;;;;;;;6.33;6.00;;;;;19.44;29.56;100936.72;4898754;28;45669;-85
2022/04/18 09:29:39;;;;;;;;;6.00;6.00;;;;;19.09;30.11;100897.84;4913001;28;44766;-85
2022/04/18 09:32:12;;;;;;;;;9.00;9.00;;;;;19.42;30.69;100911.59;4897447;28;44828;-86
2022/04/18 09:34:40;;;;;;;;;9.00;8.67;;;;;19.45;29.79;100936.72;4874624;29;45056;-85
2022/04/18 09:37:17;;;;;;;;;8.33;7.33;;;;;19.48;30.41;100924.97;4915681;28;45442;-84
2022/04/18 09:39:53;;;;;;;;;7.00;6.67;;;;;19.67;30.17;100934.44;4903627;28;44856;-84
2022/04/18 09:42:22;;;;;;;;;7.67;6.00;;;;;19.67;29.93;100923.66;4878993;29;45457;-84
2022/04/18 09:44:48;;;;;;;;;6.33;6.33;;;;;19.62;30.39;100914.78;4882384;29;45259;-85
2022/04/18 09:47:19;;;;;;;;;7.00;7.00;;;;;19.53;29.88;100887.97;4880251;29;47297;-84
2022/04/18 09:49:46;;;;;;;;;9.67;8.00;;;;;19.72;30.24;100926.31;4897583;28;44881;-84
2022/04/18 09:52:15;;;;;;;;;9.00;7.00;;;;;19.73;30.24;100926.28;4877185;28;44892;-85
2022/04/18 09:54:56;;;;;;;;;9.00;9.00;;;;;19.88;30.49;100922.34;4879719;28;44906;-86
2022/04/18 09:57:28;;;;;;;;;8.00;8.00;;;;;19.99;30.70;100925.69;4878778;28;46579;-85
2022/04/18 09:59:59;;;;;;;;;6.00;6.00;;;;;19.86;30.11;100880.13;4880769;28;44840;-85
2022/04/18 10:02:25;;;;;;;;;9.67;8.00;;;;;20.06;29.62;100915.66;4898543;28;45458;-84
2022/04/18 10:05:08;;;;;;;;;;;;;;;;;;;;;
2022/04/18 10:07:45;;;;;;;;;7.00;7.00;;;;;20.37;30.09;100904.16;4897936;28;74403;-85
2022/04/18 10:10:13;;;;;;;;;9.33;7.33;;;;;20.42;30.12;100907.66;4882518;28;45765;-85
2022/04/18 10:12:38;;;;;;;;;8.00;7.00;;;;;20.15;29.67;100861.44;4899182;28;44742;-85
2022/04/18 10:15:05;;;;;;;;;7.00;7.00;;;;;20.49;29.61;100902.97;4883772;29;45708;-85
2022/04/18 10:17:32;;;;;;;;;9.33;9.33;;;;;20.31;29.19;100877.28;4895724;29;45465;-85
2022/04/18 10:20:14;;;;;;;;;9.00;7.00;;;;;20.43;28.96;100900.41;4878836;29;45353;-84
2022/04/18 10:22:49;;;;;;;;;8.00;8.00;;;;;20.37;29.43;100901.44;4878641;29;45151;-85
2022/04/18 10:25:33;;;;;;;;;8.67;8.00;;;;;20.46;29.20;100897.63;4878129;29;44803;-85
2022/04/18 10:31:25;;;;;;;;;8.00;8.00;;;;;20.35;29.44;100860.09;4895056;28;44829;-85
2022/04/18 10:33:51;;;;;;;;;10.33;10.00;;;;;20.51;29.30;100899.31;4895580;28;45439;-84
2022/04/18 10:36:35;;;;;;;;;11.33;9.67;;;;;20.75;28.95;100899.66;4879420;29;44925;-85
2022/04/18 10:39:04;;;;;;;;;10.67;10.67;;;;;20.69;28.78;100899.81;4895618;28;46584;-84
2022/04/18 10:41:38;;;;;;;;;11.67;11.67;;;;;20.61;28.56;100872.09;4880051;29;45613;-84
2022/04/18 10:44:09;;;;;;;;;9.00;9.00;;;;;20.62;29.44;100893.66;4879349;29;45713;-84
2022/04/18 10:46:49;;;;;;;;;11.00;11.00;;;;;20.57;29.30;100893.75;4879358;29;45412;-85
2022/04/18 10:49:20;;;;;;;;;9.33;9.33;;;;;20.66;29.38;100894.47;4900368;28;45755;-85
2022/04/18 10:51:47;;;;;;;;;14.00;11.67;;;;;20.61;29.55;100883.78;4879903;29;45751;-85
2022/04/18 10:54:21;;;;;;;;;12.00;10.33;;;;;20.64;29.42;100861.19;4891057;29;45436;-83
2022/04/18 10:56:48;;;;;;;;;11.00;11.00;;;;;20.72;29.61;100880.81;4892247;29;44730;-83
2022/04/18 10:59:14;;;;;;;;;12.33;12.33;;;;;20.76;29.27;100885.19;4874378;29;48026;-85
2022/04/18 11:01:46;;;;;;;;;12.67;10.67;;;;;20.90;29.31;100885.72;4875210;29;45484;-85
2022/04/18 11:04:12;;;;;;;;;11.67;10.67;;;;;20.84;28.77;100868.78;4890136;29;45486;-85
2022/04/18 11:10:01;;;;;;;;;11.33;11.00;;;;;20.80;29.18;100865.28;4891054;29;45451;-84
2022/04/18 11:12:27;;;;;;;;;10.67;10.67;;;;;20.95;28.92;100872.97;4891156;29;45350;-85
2022/04/18 11:14:52;;;;;;;;;12.00;12.00;;;;;21.09;28.21;100872.63;4890740;29;44811;-84
2022/04/18 11:17:41;;;;;;;;;8.33;7.33;;;;;21.28;28.51;100872.97;4892544;29;45703;-84
2022/04/18 11:20:38;;;;;;;;;10.33;9.00;;;;;21.50;28.52;100857.03;4890379;29;47260;-84
2022/04/18 11:23:23;;;;;;;;;10.00;10.00;;;;;21.62;28.57;100838.69;4893292;29;45409;-84
2022/04/18 11:25:52;;;;;;;;;9.33;9.33;;;;;21.73;28.11;100863.59;4894251;29;45373;-85
2022/04/18 11:28:17;;;;;;;;;7.67;7.67;;;;;21.49;27.99;100841.75;4877028;29;45376;-85
2022/04/18 11:30:43;;;;;;;;;9.00;9.00;;;;;21.50;28.45;100856.16;4890554;29;45200;-85
2022/04/18 11:33:08;;;;;;;;;8.00;8.00;;;;;21.52;28.66;100840.78;4890558;29;45399;-83
2022/04/18 11:35:36;;;;;;;;;10.00;9.67;;;;;21.85;28.11;100846.09;4891475;29;45453;-85
2022/04/18 11:38:11;;;;;;;;;8.33;8.33;;;;;21.85;27.69;100832.56;4891576;29;44875;-85
2022/04/18 11:40:38;;;;;;;;;7.00;7.00;;;;;22.00;27.43;100850.16;4874857;29;46858;-85
2022/04/18 11:43:15;;;;;;;;;9.33;8.00;;;;;22.21;27.48;100845.88;4892283;29;45417;-85
2022/04/18 11:45:41;;;;;;;;;8.33;8.33;;;;;22.08;27.32;100816.47;4873538;29;45463;-85
2022/04/18 11:48:13;;;;;;;;;8.67;7.00;;;;;22.45;27.04;100841.50;4889599;29;45771;-84
2022/04/18 11:50:43;;;;;;;;;7.00;7.00;;;;;22.52;26.67;100833.09;4890635;29;45749;-83
2022/04/18 11:53:09;;;;;;;;;5.00;5.00;;;;;22.51;25.77;100834.03;4905863;29;45878;-85
2022/04/18 11:55:49;;;;;;;;;7.33;6.33;;;;;22.69;26.11;100829.81;4875306;29;44825;-83
2022/04/18 11:58:22;;;;;;;;;9.00;7.00;;;;;22.83;26.76;100825.72;4890108;29;45415;-84